Time;durP1;ratioP1;P1;durP2;ratioP2;P2;SDS_P1;SDS_P2;PMS_P1;PMS_P2;Temp;Humidity;BMP_temperature;BMP_pressure;BME280_temperature;BME280_humidity;BME280_pressure;Samples;Min_cycle;Max_cycle;Signal;HPM_P1;HPM_P2
2023/08/24 00:01:31;;;;;;;5.03;1.83;;;;;;;17.30;100.00;101172.13;6122194;28;20035;-66
2023/08/24 00:04:26;;;;;;;4.37;1.87;;;;;;;17.25;100.00;101171.84;6121138;28;20028;-67
2023/08/24 00:07:22;;;;;;;5.07;2.10;;;;;;;17.26;100.00;101174.34;6131828;28;20492;-67
2023/08/24 00:10:17;;;;;;;4.63;1.77;;;;;;;17.29;100.00;101149.00;6121896;28;20040;-67
2023/08/24 00:13:13;;;;;;;5.10;2.35;;;;;;;17.47;100.00;101152.25;6121632;28;20040;-67
2023/08/24 00:16:09;;;;;;;4.25;1.83;;;;;;;17.33;100.00;101166.44;6121003;28;20089;-66
2023/08/24 00:19:04;;;;;;;6.88;2.72;;;;;;;16.77;100.00;101166.78;6121669;28;20049;-67
2023/08/24 00:22:00;;;;;;;6.47;2.70;;;;;;;16.48;100.00;101162.00;6121815;28;20036;-67
2023/08/24 00:24:55;;;;;;;11.90;2.80;;;;;;;16.37;100.00;101173.91;6121363;28;20387;-67
2023/08/24 00:27:50;;;;;;;8.20;2.83;;;;;;;16.29;100.00;101171.25;6121310;28;20039;-67
2023/08/24 00:30:46;;;;;;;6.47;2.80;;;;;;;16.24;100.00;101181.66;6121420;28;20032;-67
2023/08/24 00:33:41;;;;;;;6.37;3.50;;;;;;;16.05;100.00;101177.53;6121272;28;20032;-67
2023/08/24 00:36:37;;;;;;;7.43;3.17;;;;;;;16.21;100.00;101179.31;6121439;28;20021;-67
2023/08/24 00:39:32;;;;;;;6.93;3.15;;;;;;;16.05;100.00;101196.25;6121622;28;20432;-67
2023/08/24 00:42:28;;;;;;;8.43;3.13;;;;;;;15.94;100.00;101195.75;6121165;28;20032;-66
2023/08/24 00:45:23;;;;;;;5.57;2.73;;;;;;;15.85;100.00;101178.88;6120948;28;20032;-66
2023/08/24 00:48:19;;;;;;;7.88;3.45;;;;;;;15.77;100.00;101176.19;6121378;28;20028;-67
2023/08/24 00:51:15;;;;;;;5.90;3.22;;;;;;;15.90;100.00;101191.72;6137574;28;20032;-67
2023/08/24 00:54:10;;;;;;;4.78;3.13;;;;;;;15.69;100.00;101196.75;6177933;27;20042;-66
2023/08/24 00:57:06;;;;;;;5.93;3.30;;;;;;;15.91;100.00;101177.34;6141169;28;20074;-66
2023/08/24 01:00:05;;;;;;;5.70;3.03;;;;;;;15.68;100.00;101189.75;6121165;28;20483;-66
2023/08/24 01:03:00;;;;;;;6.05;3.05;;;;;;;15.88;100.00;101175.03;6124188;28;20044;-67
2023/08/24 01:05:56;;;;;;;7.67;3.23;;;;;;;16.08;100.00;101179.03;6131652;28;20081;-67
2023/08/24 01:08:51;;;;;;;5.53;3.40;;;;;;;15.94;100.00;101177.88;6129083;28;20029;-67
2023/08/24 01:11:59;;;;;;;9.55;3.35;;;;;;;16.13;100.00;101170.47;6125857;28;20095;-67
2023/08/24 01:15:09;;;;;;;6.03;3.70;;;;;;;16.28;100.00;101169.59;6123709;28;20060;-67
2023/08/24 01:18:06;;;;;;;6.45;3.17;;;;;;;16.39;100.00;101153.16;6125552;28;20032;-66
2023/08/24 01:21:02;;;;;;;4.85;2.40;;;;;;;16.18;100.00;101154.72;6124426;28;20407;-67
2023/08/24 01:24:17;;;;;;;7.85;3.03;;;;;;;16.38;100.00;101159.53;6124377;28;20067;-67
2023/08/24 01:27:13;;;;;;;7.10;2.97;;;;;;;16.22;100.00;101170.28;6124277;28;20028;-66
2023/08/24 01:30:09;;;;;;;6.47;3.30;;;;;;;16.29;100.00;101159.72;6123189;28;20475;-67
2023/08/24 01:33:04;;;;;;;4.82;2.72;;;;;;;16.48;100.00;101173.53;6125422;28;20025;-66
2023/08/24 01:36:00;;;;;;;4.88;3.00;;;;;;;16.48;100.00;101154.81;6124652;28;20028;-66
2023/08/24 01:39:06;;;;;;;12.23;3.87;;;;;;;16.49;100.00;101161.84;6123476;28;20498;-66
2023/08/24 01:42:05;;;;;;;4.35;2.67;;;;;;;16.55;100.00;101155.81;6123920;28;20258;-66
2023/08/24 01:45:03;;;;;;;5.82;3.17;;;;;;;16.33;100.00;101161.06;6123933;28;20029;-66
2023/08/24 01:48:03;;;;;;;5.63;3.13;;;;;;;16.33;100.00;101151.19;6123520;28;20072;-67
2023/08/24 01:51:00;;;;;;;7.38;3.63;;;;;;;16.28;100.00;101142.00;6124286;28;20064;-66
2023/08/24 01:53:57;;;;;;;4.75;3.05;;;;;;;16.50;100.00;101152.78;6123015;28;20094;-66
2023/08/24 01:56:52;;;;;;;5.22;3.13;;;;;;;16.31;100.00;101147.00;6123000;28;20024;-67
2023/08/24 01:59:47;;;;;;;4.37;3.00;;;;;;;16.21;100.00;101130.31;6124763;28;20039;-66
2023/08/24 02:02:44;;;;;;;5.47;3.27;;;;;;;16.21;100.00;101157.91;6124515;28;20044;-66
2023/08/24 02:05:39;;;;;;;6.07;2.78;;;;;;;16.21;100.00;101136.50;6124040;28;20036;-66
2023/08/24 02:08:34;;;;;;;7.57;3.40;;;;;;;16.39;100.00;101136.25;6124356;28;20484;-68
2023/08/24 02:11:30;;;;;;;6.60;3.13;;;;;;;16.47;100.00;101146.97;6124141;28;20044;-66
2023/08/24 02:14:25;;;;;;;5.15;3.10;;;;;;;16.36;100.00;101134.75;6123721;28;20037;-66
2023/08/24 02:17:21;;;;;;;8.50;2.80;;;;;;;16.40;100.00;101130.75;6124125;28;20044;-66
2023/08/24 02:20:16;;;;;;;9.40;3.10;;;;;;;16.22;100.00;101124.78;6127836;28;20565;-66
2023/08/24 02:23:11;;;;;;;7.07;3.13;;;;;;;16.20;100.00;101132.13;6130037;28;20033;-67
2023/08/24 02:26:07;;;;;;;8.47;3.10;;;;;;;16.07;100.00;101130.00;6123102;28;20032;-66
2023/08/24 02:29:02;;;;;;;5.70;3.28;;;;;;;16.05;100.00;101109.78;6124088;28;20024;-66
2023/08/24 02:31:57;;;;;;;6.60;3.13;;;;;;;16.11;100.00;101124.31;6123906;28;20048;-66
2023/08/24 02:34:53;;;;;;;8.43;2.80;;;;;;;16.11;100.00;101117.13;6123054;28;20056;-66
2023/08/24 02:37:49;;;;;;;6.20;3.17;;;;;;;15.95;100.00;101114.50;6123843;28;20430;-66
2023/08/24 02:40:45;;;;;;;7.80;3.20;;;;;;;16.06;100.00;101131.00;6123598;28;20429;-66
2023/08/24 02:43:40;;;;;;;8.00;3.30;;;;;;;15.85;100.00;101114.69;6125391;28;20044;-66
2023/08/24 02:46:35;;;;;;;7.97;3.17;;;;;;;15.75;100.00;101135.44;6123364;28;20035;-67
2023/08/24 02:49:31;;;;;;;4.23;2.40;;;;;;;15.48;100.00;101122.41;6123306;28;20029;-67
2023/08/24 02:52:26;;;;;;;5.93;2.73;;;;;;;15.35;100.00;101133.59;6123557;28;20029;-67
2023/08/24 02:55:21;;;;;;;5.07;2.20;;;;;;;15.37;100.00;101123.56;6122220;28;20041;-66
2023/08/24 02:58:16;;;;;;;6.70;3.00;;;;;;;15.16;100.00;101128.56;6123220;28;20025;-66
2023/08/24 03:01:12;;;;;;;5.25;2.35;;;;;;;15.03;100.00;101111.34;6130524;28;20107;-67
2023/08/24 03:04:07;;;;;;;6.30;2.70;;;;;;;14.91;100.00;101113.50;6146699;28;20047;-66
2023/08/24 03:07:02;;;;;;;5.93;2.83;;;;;;;14.80;100.00;101113.81;6140586;28;20399;-67
2023/08/24 03:09:58;;;;;;;3.43;2.30;;;;;;;14.82;100.00;101103.78;6146581;28;20554;-67
2023/08/24 03:12:53;;;;;;;6.50;2.70;;;;;;;14.81;100.00;101126.97;6125365;28;20040;-67
2023/08/24 03:15:48;;;;;;;4.50;2.67;;;;;;;14.76;100.00;101104.44;6122307;28;20032;-66
2023/08/24 03:18:43;;;;;;;5.87;3.10;;;;;;;14.65;100.00;101102.91;6122977;28;20036;-66
2023/08/24 03:21:39;;;;;;;6.27;2.73;;;;;;;14.67;100.00;101108.09;6122879;28;20408;-66
2023/08/24 03:24:34;;;;;;;6.30;2.88;;;;;;;15.03;100.00;101106.00;6121265;28;20043;-66
2023/08/24 03:27:29;;;;;;;7.90;3.30;;;;;;;14.88;100.00;101108.47;6122767;28;20037;-67
2023/08/24 03:30:25;;;;;;;5.60;3.00;;;;;;;14.83;100.00;101111.66;6122610;28;20048;-66
2023/08/24 03:33:20;;;;;;;5.30;2.53;;;;;;;14.82;100.00;101103.78;6121599;28;20051;-66
2023/08/24 03:36:15;;;;;;;7.40;2.87;;;;;;;15.03;100.00;101101.47;6122550;28;20044;-66
2023/08/24 03:39:11;;;;;;;4.93;3.03;;;;;;;15.09;100.00;101106.16;6121705;28;20044;-66
2023/08/24 03:42:07;;;;;;;4.68;2.60;;;;;;;14.82;100.00;101120.66;6122499;28;20028;-67
2023/08/24 03:45:03;;;;;;;5.65;2.80;;;;;;;14.72;100.00;101117.28;6121614;28;20040;-66
2023/08/24 03:47:58;;;;;;;5.00;3.10;;;;;;;14.81;100.00;101113.63;6121744;28;20051;-66
2023/08/24 03:50:55;;;;;;;7.03;3.20;;;;;;;14.99;100.00;101118.00;6122123;28;20032;-66
2023/08/24 03:53:50;;;;;;;5.93;3.08;;;;;;;14.65;100.00;101115.41;6121345;28;20295;-66
2023/08/24 03:56:46;;;;;;;4.80;2.90;;;;;;;14.60;100.00;101113.22;6122077;28;20029;-66
2023/08/24 03:59:41;;;;;;;5.80;3.58;;;;;;;14.58;100.00;101106.38;6122155;28;20020;-66
2023/08/24 04:02:44;;;;;;;5.78;3.47;;;;;;;14.67;100.00;101116.09;6120721;28;20040;-66
2023/08/24 04:05:39;;;;;;;5.25;3.60;;;;;;;14.56;100.00;101125.25;6121756;28;20483;-67
2023/08/24 04:08:34;;;;;;;5.73;3.10;;;;;;;14.39;100.00;101112.00;6121649;28;20036;-66
2023/08/24 04:11:30;;;;;;;5.40;2.92;;;;;;;14.41;100.00;101116.16;6121786;28;20066;-66
2023/08/24 04:14:25;;;;;;;5.73;3.30;;;;;;;14.32;100.00;101107.28;6121139;28;20038;-66
2023/08/24 04:17:20;;;;;;;5.03;3.23;;;;;;;14.41;100.00;101123.34;6121784;28;20395;-67
2023/08/24 04:20:16;;;;;;;6.13;3.37;;;;;;;14.35;100.00;101126.66;6121474;28;20043;-66
2023/08/24 04:23:13;;;;;;;5.38;2.97;;;;;;;14.27;100.00;101136.25;6121292;28;20626;-66
2023/08/24 04:26:08;;;;;;;7.03;3.40;;;;;;;14.28;100.00;101118.41;6121385;28;20101;-66
2023/08/24 04:29:03;;;;;;;8.73;4.30;;;;;;;14.41;100.00;101118.00;6121500;28;20024;-66
2023/08/24 04:31:59;;;;;;;6.97;4.10;;;;;;;14.48;100.00;101145.72;6121727;28;20028;-67
2023/08/24 04:34:54;;;;;;;6.50;4.50;;;;;;;14.49;100.00;101147.38;6120925;28;20058;-67
2023/08/24 04:37:49;;;;;;;9.40;4.10;;;;;;;14.47;100.00;101150.22;6124485;28;20376;-66
2023/08/24 04:40:53;;;;;;;7.03;4.23;;;;;;;14.41;100.00;101142.84;6126252;28;20063;-66
2023/08/24 04:43:48;;;;;;;8.23;4.20;;;;;;;14.48;100.00;101146.56;6125707;28;20697;-66
2023/08/24 04:46:43;;;;;;;7.43;4.20;;;;;;;14.67;100.00;101132.97;6126413;28;20035;-67
2023/08/24 04:49:39;;;;;;;9.17;4.80;;;;;;;15.00;100.00;101144.53;6126322;28;20032;-66
2023/08/24 04:52:34;;;;;;;9.60;4.90;;;;;;;14.97;100.00;101133.38;6125992;28;20115;-67
2023/08/24 04:55:30;;;;;;;6.95;4.43;;;;;;;14.90;100.00;101144.69;6125492;28;20054;-67
2023/08/24 04:58:26;;;;;;;8.30;5.00;;;;;;;15.03;100.00;101154.91;6127131;28;20724;-67
2023/08/24 05:01:21;;;;;;;9.63;4.97;;;;;;;15.08;100.00;101163.28;6129805;28;20117;-66
2023/08/24 05:04:16;;;;;;;6.83;5.00;;;;;;;15.11;100.00;101138.88;6127522;28;20111;-66
2023/08/24 05:07:12;;;;;;;6.83;5.00;;;;;;;15.64;100.00;101148.31;6137529;28;20254;-66
2023/08/24 05:10:07;;;;;;;10.00;4.93;;;;;;;15.83;100.00;101145.28;6140587;28;20081;-67
2023/08/24 05:13:03;;;;;;;6.97;5.13;;;;;;;16.14;100.00;101156.94;6125568;28;20032;-67
2023/08/24 05:15:58;;;;;;;5.88;4.13;;;;;;;16.26;100.00;101166.25;6124998;28;20064;-67
2023/08/24 05:18:54;;;;;;;9.60;4.50;;;;;;;16.44;100.00;101168.72;6126833;28;20032;-67
2023/08/24 05:21:49;;;;;;;8.33;4.10;;;;;;;16.90;100.00;101172.41;6125294;28;20028;-67
2023/08/24 05:24:44;;;;;;;10.03;4.37;;;;;;;17.18;100.00;101162.81;6130276;28;20387;-67
2023/08/24 05:27:40;;;;;;;5.43;3.75;;;;;;;17.45;100.00;101146.22;6132932;28;20029;-67
2023/08/24 05:30:35;;;;;;;6.90;3.47;;;;;;;18.24;100.00;101137.59;6125395;28;20034;-68
2023/08/24 05:33:33;;;;;;;6.50;3.28;;;;;;;18.59;100.00;101132.50;6124627;28;20040;-67
2023/08/24 05:36:28;;;;;;;7.13;4.20;;;;;;;18.62;100.00;101143.69;6131499;28;20118;-67
2023/08/24 05:39:23;;;;;;;8.70;3.70;;;;;;;18.67;100.00;101157.41;6136502;28;20030;-67
2023/08/24 05:42:19;;;;;;;7.17;4.37;;;;;;;18.27;100.00;101155.16;6126343;28;20036;-67
2023/08/24 05:45:14;;;;;;;7.63;4.20;;;;;;;17.46;100.00;101133.63;6124477;28;20540;-67
2023/08/24 05:48:09;;;;;;;10.67;4.57;;;;;;;17.09;100.00;101137.91;6123724;28;20040;-67
2023/08/24 05:51:06;;;;;;;9.52;4.68;;;;;;;17.13;100.00;101149.13;6123825;28;20067;-67
2023/08/24 05:54:01;;;;;;;7.38;4.30;;;;;;;17.08;100.00;101141.63;6130911;28;20037;-67
2023/08/24 05:57:00;;;;;;;14.47;4.43;;;;;;;17.24;100.00;101149.56;6124611;28;20056;-67
2023/08/24 05:59:55;;;;;;;28.50;5.32;;;;;;;17.81;100.00;101149.13;6124787;28;20805;-67
2023/08/24 06:02:51;;;;;;;9.47;4.33;;;;;;;17.93;100.00;101161.09;6124141;28;20036;-67
2023/08/24 06:05:46;;;;;;;12.20;4.20;;;;;;;18.03;100.00;101155.44;6123628;28;20270;-67
2023/08/24 06:08:42;;;;;;;6.37;3.70;;;;;;;18.34;100.00;101161.50;6125494;28;20050;-67
2023/08/24 06:11:37;;;;;;;8.25;3.78;;;;;;;18.06;100.00;101147.03;6124345;28;20025;-66
2023/08/24 06:14:32;;;;;;;5.47;3.63;;;;;;;18.23;100.00;101135.09;6125843;28;20032;-66
2023/08/24 06:17:28;;;;;;;6.90;3.47;;;;;;;18.07;100.00;101132.59;6128345;28;20517;-66
2023/08/24 06:20:23;;;;;;;6.63;3.70;;;;;;;18.16;100.00;101134.16;6124969;28;20040;-66
2023/08/24 06:23:18;;;;;;;8.83;4.30;;;;;;;18.16;100.00;101139.53;6123642;28;20055;-66
2023/08/24 06:26:14;;;;;;;6.53;3.35;;;;;;;18.33;100.00;101132.94;6123460;28;20479;-66
2023/08/24 06:29:09;;;;;;;10.35;4.00;;;;;;;18.40;100.00;101112.38;6144108;28;20032;-66
2023/08/24 06:32:05;;;;;;;7.83;4.20;;;;;;;18.27;100.00;101093.41;6138445;28;20032;-65
2023/08/24 06:35:00;;;;;;;9.02;4.72;;;;;;;17.79;100.00;101090.28;6126910;28;20048;-65
2023/08/24 06:37:55;;;;;;;6.67;4.30;;;;;;;17.64;100.00;101108.19;6123947;28;20067;-66
2023/08/24 06:40:51;;;;;;;6.80;4.00;;;;;;;18.01;100.00;101101.13;6122525;28;20051;-66
2023/08/24 06:43:46;;;;;;;7.63;4.20;;;;;;;18.11;100.00;101109.72;6127615;28;20322;-65
2023/08/24 06:46:41;;;;;;;8.43;4.63;;;;;;;17.98;100.00;101090.75;6123215;28;20032;-66
2023/08/24 06:49:37;;;;;;;8.23;4.40;;;;;;;18.55;100.00;101089.06;6121371;28;21448;-66
2023/08/24 06:52:32;;;;;;;6.33;3.83;;;;;;;18.58;100.00;101094.06;6122914;28;20279;-66
2023/08/24 06:55:27;;;;;;;7.97;4.17;;;;;;;18.57;100.00;101092.38;6120869;28;20059;-65
2023/08/24 06:58:22;;;;;;;6.97;4.30;;;;;;;18.50;100.00;101096.84;6122493;28;20048;-66
2023/08/24 07:01:18;;;;;;;9.33;5.10;;;;;;;18.29;100.00;101084.16;6120875;28;20036;-66
2023/08/24 07:04:13;;;;;;;8.30;5.43;;;;;;;18.30;100.00;101074.25;6118997;28;20051;-66
2023/08/24 07:07:08;;;;;;;11.00;5.10;;;;;;;18.49;100.00;101089.81;6121349;28;20465;-66
2023/08/24 07:10:04;;;;;;;9.05;5.28;;;;;;;18.55;100.00;101061.38;6122095;28;20137;-66
2023/08/24 07:12:59;;;;;;;11.55;5.07;;;;;;;18.76;100.00;101064.06;6119987;28;20028;-66
2023/08/24 07:15:56;;;;;;;10.27;4.80;;;;;;;18.84;100.00;101067.47;6119442;28;20612;-66
2023/08/24 07:18:51;;;;;;;8.77;4.35;;;;;;;18.83;100.00;101068.50;6122117;28;20383;-66
2023/08/24 07:21:46;;;;;;;10.43;4.93;;;;;;;19.01;100.00;101079.66;6120121;28;20036;-66
2023/08/24 07:24:41;;;;;;;9.93;5.50;;;;;;;19.21;100.00;101092.47;6120071;28;20688;-65
2023/08/24 07:27:37;;;;;;;14.70;4.77;;;;;;;19.56;100.00;101091.56;6118756;28;20036;-66
2023/08/24 07:30:32;;;;;;;10.00;4.47;;;;;;;19.86;100.00;101090.31;6120285;28;20098;-66
2023/08/24 07:33:28;;;;;;;13.30;4.47;;;;;;;19.96;99.20;101096.19;6125796;28;20044;-66
2023/08/24 07:36:23;;;;;;;11.02;4.35;;;;;;;20.86;95.33;101081.66;6124809;28;20115;-66
2023/08/24 07:39:19;;;;;;;11.47;3.90;;;;;;;21.90;86.48;101089.84;6132048;28;20078;-66
2023/08/24 07:42:14;;;;;;;10.40;4.18;;;;;;;23.02;79.98;101092.13;6128089;28;20040;-66
2023/08/24 07:45:09;;;;;;;13.73;3.93;;;;;;;23.48;75.85;101070.97;6120678;28;20635;-67
2023/08/24 07:48:05;;;;;;;9.48;3.92;;;;;;;24.26;70.25;101073.97;6121397;28;20036;-67
2023/08/24 07:51:00;;;;;;;9.23;4.20;;;;;;;24.22;67.66;101075.47;6121170;28;20031;-66
2023/08/24 07:53:56;;;;;;;8.47;3.80;;;;;;;23.55;71.51;101055.50;6120394;28;20032;-66
2023/08/24 07:56:51;;;;;;;6.37;4.10;;;;;;;23.96;69.34;101062.19;6120836;28;20036;-66
2023/08/24 07:59:46;;;;;;;6.60;4.30;;;;;;;23.81;68.54;101046.28;6120035;28;20040;-66
2023/08/24 08:02:42;;;;;;;8.67;4.37;;;;;;;23.44;68.54;101058.94;6121519;28;20035;-66
2023/08/24 08:05:37;;;;;;;11.40;5.60;;;;;;;23.54;71.31;101045.72;6131115;28;20119;-67
2023/08/24 08:08:32;;;;;;;14.70;4.93;;;;;;;23.83;70.75;101040.66;6122766;28;20052;-66
2023/08/24 08:11:28;;;;;;;10.50;4.97;;;;;;;23.54;71.82;101053.84;6120877;28;20043;-66
2023/08/24 08:14:23;;;;;;;12.10;4.83;;;;;;;24.13;67.64;101028.06;6119277;28;20064;-67
2023/08/24 08:17:18;;;;;;;10.80;4.72;;;;;;;24.56;66.83;101028.72;6120318;28;20324;-67
2023/08/24 08:20:14;;;;;;;7.00;3.90;;;;;;;24.04;65.58;101029.38;6120348;28;20056;-67
2023/08/24 08:23:09;;;;;;;7.95;4.00;;;;;;;24.40;65.00;101047.53;6120578;28;20111;-66
2023/08/24 08:26:05;;;;;;;13.37;4.23;;;;;;;23.51;67.18;101043.47;6119512;28;20033;-66
2023/08/24 08:29:00;;;;;;;14.63;3.88;;;;;;;23.55;68.48;101039.28;6120279;28;20498;-67
2023/08/24 08:31:55;;;;;;;9.50;3.93;;;;;;;23.62;64.78;101023.78;6120354;28;20028;-66
2023/08/24 08:34:50;;;;;;;10.07;4.73;;;;;;;23.62;66.21;101039.19;6119513;28;20275;-66
2023/08/24 08:37:49;;;;;;;7.53;3.67;;;;;;;23.54;67.25;101043.00;6120768;28;20043;-67
2023/08/24 08:40:46;;;;;;;8.38;3.55;;;;;;;23.79;64.95;101018.59;6121093;28;20028;-67
2023/08/24 08:43:41;;;;;;;5.93;2.67;;;;;;;23.57;64.55;101042.56;6122235;28;20036;-66
2023/08/24 08:46:36;;;;;;;5.67;3.00;;;;;;;23.72;65.46;101034.09;6120887;28;20468;-67
2023/08/24 08:49:34;;;;;;;8.45;3.33;;;;;;;24.09;64.55;101038.50;6119674;28;20682;-67
2023/08/24 08:52:31;;;;;;;5.65;3.13;;;;;;;24.10;65.61;101028.50;6120379;28;20029;-67
2023/08/24 08:55:27;;;;;;;6.43;3.03;;;;;;;24.21;65.76;101039.41;6120244;28;20028;-66
2023/08/24 08:58:23;;;;;;;6.35;2.72;;;;;;;23.75;66.03;101028.25;6119184;28;20032;-67
2023/08/24 09:01:19;;;;;;;7.20;3.60;;;;;;;24.05;65.33;101033.75;6119362;28;20031;-67
2023/08/24 09:04:15;;;;;;;5.50;3.30;;;;;;;24.17;64.37;101023.81;6118955;28;20472;-67
2023/08/24 09:07:12;;;;;;;5.40;3.47;;;;;;;24.76;62.68;101017.56;6121950;28;20111;-66
2023/08/24 09:10:08;;;;;;;5.40;3.10;;;;;;;25.34;62.33;101025.88;6123375;28;20028;-68
2023/08/24 09:13:03;;;;;;;4.45;2.97;;;;;;;25.31;59.34;101008.16;6120387;28;20024;-66
2023/08/24 09:16:06;;;;;;;4.53;3.22;;;;;;;25.39;59.43;101025.97;6119898;28;20060;-67
2023/08/24 09:19:05;;;;;;;5.28;2.92;;;;;;;25.68;60.04;101022.38;6120345;28;20105;-67
2023/08/24 09:22:01;;;;;;;10.77;3.33;;;;;;;25.89;58.96;101021.75;6120330;28;20081;-67
2023/08/24 09:25:02;;;;;;;8.27;2.88;;;;;;;26.02;56.67;101018.78;6122617;28;20063;-67
2023/08/24 09:28:04;;;;;;;6.70;3.13;;;;;;;26.45;55.60;101025.63;6124966;28;20036;-67
2023/08/24 09:31:01;;;;;;;7.45;3.03;;;;;;;26.89;54.28;101016.69;6129578;28;20547;-67
2023/08/24 09:34:00;;;;;;;4.07;2.85;;;;;;;27.24;54.27;101008.28;6123412;28;20044;-67
2023/08/24 09:36:55;;;;;;;6.28;2.95;;;;;;;27.06;55.18;101003.94;6124086;28;20032;-67
2023/08/24 09:40:01;;;;;;;6.97;2.80;;;;;;;27.09;54.86;101011.63;6124053;28;20055;-67
2023/08/24 09:42:56;;;;;;;4.13;2.75;;;;;;;27.09;54.88;101005.34;6124537;28;20508;-67
2023/08/24 09:45:55;;;;;;;8.73;3.03;;;;;;;27.78;52.77;100991.13;6123383;28;20032;-68
2023/08/24 09:48:53;;;;;;;;;;;;;;;28.08;51.80;100998.06;6127005;28;20491;-68
2023/08/24 09:51:49;;;;;;;5.57;2.90;;;;;;;28.19;50.13;100997.94;6128662;28;19917;-68
2023/08/24 09:54:45;;;;;;;6.63;2.70;;;;;;;27.58;50.85;100969.06;6121827;28;20036;-67
2023/08/24 09:57:40;;;;;;;6.80;2.67;;;;;;;28.13;50.70;100990.78;6124463;28;20079;-68
2023/08/24 10:00:37;;;;;;;5.65;3.00;;;;;;;27.89;50.45;100966.72;6123143;28;20036;-67
2023/08/24 10:03:33;;;;;;;6.97;3.45;;;;;;;28.21;49.35;100976.69;6131238;28;20036;-67
2023/08/24 10:06:29;;;;;;;7.15;2.92;;;;;;;28.67;49.05;100958.91;6130232;28;20094;-67
2023/08/24 10:09:32;;;;;;;7.88;3.17;;;;;;;28.26;48.64;100944.03;6125600;28;20116;-67
2023/08/24 10:12:28;;;;;;;8.98;4.00;;;;;;;28.13;48.86;100946.34;6122629;28;20035;-67
2023/08/24 10:15:24;;;;;;;8.35;4.00;;;;;;;28.34;48.40;100932.66;6124612;28;20033;-67
2023/08/24 10:18:20;;;;;;;6.80;3.78;;;;;;;28.33;49.00;100932.91;6127060;28;20055;-66
2023/08/24 10:21:15;;;;;;;6.55;4.38;;;;;;;27.27;51.54;100917.91;6128715;28;20080;-67
2023/08/24 10:24:12;;;;;;;7.25;4.07;;;;;;;27.43;51.03;100924.41;6121711;28;20040;-67
2023/08/24 10:27:09;;;;;;;7.70;5.78;;;;;;;27.43;50.85;100918.97;6124000;28;20032;-67
2023/08/24 10:30:05;;;;;;;10.25;4.40;;;;;;;27.09;52.63;100927.19;6123971;28;20024;-67
2023/08/24 10:33:01;;;;;;;11.63;4.90;;;;;;;27.02;51.53;100914.78;6126505;28;20077;-67
2023/08/24 10:35:57;;;;;;;7.78;4.13;;;;;;;27.52;51.52;100918.28;6125215;28;20024;-67
2023/08/24 10:38:55;;;;;;;10.20;4.10;;;;;;;27.49;51.23;100907.06;6125052;28;20039;-67
2023/08/24 10:41:52;;;;;;;9.30;4.00;;;;;;;27.48;51.16;100883.59;6122618;28;20032;-67
2023/08/24 10:44:47;;;;;;;8.50;3.33;;;;;;;27.84;49.95;100890.31;6120372;28;20404;-67
2023/08/24 10:47:46;;;;;;;8.60;3.47;;;;;;;28.29;48.45;100886.19;6127161;28;20039;-67
2023/08/24 10:50:42;;;;;;;7.55;3.47;;;;;;;28.50;47.77;100870.03;6121856;28;20044;-67
2023/08/24 10:53:37;;;;;;;6.30;3.30;;;;;;;27.65;48.43;100878.91;6122332;28;20528;-67
2023/08/24 10:56:39;;;;;;;15.02;3.88;;;;;;;27.83;48.82;100873.13;6122542;28;20048;-67
2023/08/24 10:59:35;;;;;;;5.68;2.75;;;;;;;28.08;47.11;100889.81;6122207;28;20048;-67
2023/08/24 11:02:30;;;;;;;7.50;3.10;;;;;;;28.21;48.69;100874.94;6122469;28;20046;-67
2023/08/24 11:05:30;;;;;;;5.87;3.27;;;;;;;28.51;47.59;100882.59;6120283;28;20036;-67
2023/08/24 11:08:45;;;;;;;8.30;2.90;;;;;;;27.97;47.99;100887.19;6121661;28;20271;-67
2023/08/24 11:11:41;;;;;;;5.95;3.22;;;;;;;27.95;47.29;100873.00;6122485;28;20033;-67
2023/08/24 11:14:48;;;;;;;6.30;2.92;;;;;;;27.68;47.28;100898.31;6120627;28;20059;-67
2023/08/24 11:17:45;;;;;;;6.28;3.50;;;;;;;27.86;47.47;100874.56;6120172;28;20043;-68
2023/08/24 11:20:44;;;;;;;11.70;3.78;;;;;;;28.54;46.66;100866.50;6120632;28;20036;-68
2023/08/24 11:23:40;;;;;;;5.57;2.67;;;;;;;27.92;46.63;100879.78;6121327;28;20501;-67
2023/08/24 11:26:39;;;;;;;10.02;3.08;;;;;;;28.46;45.53;100868.88;6120411;28;20024;-67
2023/08/24 11:29:36;;;;;;;5.80;3.00;;;;;;;28.77;45.13;100865.34;6121369;28;20044;-67
2023/08/24 11:32:31;;;;;;;7.20;2.80;;;;;;;28.94;43.86;100852.38;6121461;28;20407;-68
2023/08/24 11:35:26;;;;;;;8.45;4.38;;;;;;;29.15;43.98;100856.84;6118983;28;20358;-68
2023/08/24 11:38:22;;;;;;;6.00;3.35;;;;;;;29.67;43.06;100865.06;6121196;28;20052;-68
2023/08/24 11:41:18;;;;;;;8.45;3.45;;;;;;;29.05;44.98;100854.06;6122878;28;20474;-67
2023/08/24 11:44:13;;;;;;;9.60;5.00;;;;;;;28.42;46.23;100856.84;6119615;28;20079;-67
2023/08/24 11:47:09;;;;;;;14.03;5.93;;;;;;;28.59;46.95;100865.72;6123405;28;20076;-68
2023/08/24 11:50:05;;;;;;;6.07;4.22;;;;;;;28.83;45.65;100847.94;6121362;28;20362;-68
2023/08/24 11:53:01;;;;;;;9.43;4.70;;;;;;;28.37;45.21;100826.78;6117726;28;20040;-68
2023/08/24 11:55:56;;;;;;;7.68;3.70;;;;;;;28.87;45.31;100819.00;6120790;28;20495;-67
2023/08/24 11:58:51;;;;;;;9.13;3.97;;;;;;;29.22;44.64;100808.28;6127616;28;20514;-68
2023/08/24 12:01:47;;;;;;;8.50;3.60;;;;;;;29.06;45.10;100801.06;6121393;28;20071;-68
2023/08/24 12:04:42;;;;;;;5.38;3.70;;;;;;;29.26;43.80;100787.53;6119354;28;21012;-67
2023/08/24 12:07:37;;;;;;;9.10;3.70;;;;;;;29.11;44.48;100790.16;6122653;28;20554;-67
2023/08/24 12:10:35;;;;;;;9.47;3.80;;;;;;;28.56;44.74;100781.63;6119549;28;20025;-68
2023/08/24 12:13:32;;;;;;;12.05;4.25;;;;;;;28.51;43.94;100784.34;6119827;28;20081;-68
2023/08/24 12:16:30;;;;;;;7.28;3.03;;;;;;;28.74;43.92;100800.34;6130081;28;20430;-68
2023/08/24 12:19:26;;;;;;;9.57;4.40;;;;;;;28.68;42.06;100763.16;6121360;28;20040;-68
2023/08/24 12:22:21;;;;;;;8.83;3.63;;;;;;;28.43;42.91;100765.72;6119021;28;20033;-67
2023/08/24 12:25:17;;;;;;;7.60;3.28;;;;;;;28.30;41.76;100770.53;6120334;28;20112;-68
2023/08/24 12:28:19;;;;;;;5.67;2.97;;;;;;;28.31;41.35;100755.81;6121033;28;20032;-67
2023/08/24 12:31:14;;;;;;;8.70;3.35;;;;;;;28.58;41.55;100746.69;6120930;28;20361;-68
2023/08/24 12:34:09;;;;;;;5.33;3.10;;;;;;;28.53;42.46;100754.88;6119567;28;20036;-68
2023/08/24 12:37:05;;;;;;;5.13;2.40;;;;;;;28.57;42.07;100725.94;6120886;28;20270;-68
2023/08/24 12:40:01;;;;;;;7.75;3.08;;;;;;;28.51;42.04;100721.56;6120562;28;20032;-67
2023/08/24 12:42:56;;;;;;;8.88;3.10;;;;;;;28.69;43.28;100718.41;6120832;28;20032;-68
2023/08/24 12:45:51;;;;;;;7.07;2.90;;;;;;;29.15;42.85;100724.88;6128911;28;20514;-68
2023/08/24 12:48:47;;;;;;;5.75;3.03;;;;;;;29.05;42.33;100714.75;6130093;28;20040;-68
2023/08/24 12:51:42;;;;;;;7.47;2.90;;;;;;;29.12;41.43;100701.66;6136852;28;20075;-67
2023/08/24 12:54:37;;;;;;;4.57;2.50;;;;;;;29.42;40.47;100709.97;6133598;28;20036;-67
2023/08/24 12:57:33;;;;;;;6.93;2.53;;;;;;;29.44;40.84;100699.59;6124252;28;20032;-67
2023/08/24 13:00:28;;;;;;;8.10;2.80;;;;;;;29.51;40.29;100702.88;6123329;28;20044;-68
2023/08/24 13:03:23;;;;;;;5.83;3.13;;;;;;;28.85;39.37;100692.81;6121753;28;20036;-67
2023/08/24 13:06:19;;;;;;;11.43;2.93;;;;;;;28.86;39.47;100661.69;6123393;28;20673;-67
2023/08/24 13:09:14;;;;;;;11.90;3.20;;;;;;;28.93;39.99;100678.66;6123235;28;20060;-68
2023/08/24 13:12:09;;;;;;;5.70;2.60;;;;;;;29.16;39.32;100669.97;6124328;28;20682;-67
2023/08/24 13:15:05;;;;;;;7.03;3.00;;;;;;;29.30;39.75;100662.94;6122908;28;20036;-69
2023/08/24 13:18:00;;;;;;;6.30;3.13;;;;;;;29.60;39.16;100675.00;6123462;28;20031;-68
2023/08/24 13:20:56;;;;;;;5.63;2.60;;;;;;;29.62;39.71;100664.63;6125288;28;20028;-67
2023/08/24 13:23:51;;;;;;;8.10;3.23;;;;;;;30.15;39.06;100655.03;6124122;28;20451;-68
2023/08/24 13:26:46;;;;;;;9.13;2.63;;;;;;;29.93;38.12;100652.59;6124660;28;20293;-67
2023/08/24 13:29:42;;;;;;;8.30;3.07;;;;;;;29.95;38.11;100669.56;6125074;28;20035;-67
2023/08/24 13:32:38;;;;;;;9.65;2.83;;;;;;;29.43;39.71;100684.25;6124407;28;20028;-68